Time;durP1;ratioP1;P1;durP2;ratioP2;P2;SDS_P1;SDS_P2;PMS_P1;PMS_P2;Temp;Humidity;BMP_temperature;BMP_pressure;BME280_temperature;BME280_humidity;BME280_pressure;Samples;Min_cycle;Max_cycle;Signal;HPM_P1;HPM_P2
2021/11/07 00:00:24;;;;;;;60.28;12.25;;;10.30;99.90;;;;;;5060688;28;20087;-64
2021/11/07 00:05:54;;;;;;;67.65;12.73;;;10.40;99.90;;;;;;5035448;28;20095;-65
2021/11/07 00:08:36;;;;;;;52.30;9.63;;;10.40;99.90;;;;;;5055915;28;20025;-65
2021/11/07 00:11:06;;;;;;;48.35;10.20;;;10.40;99.90;;;;;;5074443;28;20027;-65
2021/11/07 00:13:32;;;;;;;61.20;10.85;;;10.50;99.90;;;;;;5072481;28;20050;-65
2021/11/07 00:16:04;;;;;;;56.42;10.02;;;10.50;99.90;;;;;;5054282;28;20056;-65
2021/11/07 00:18:36;;;;;;;44.83;7.43;;;10.50;99.90;;;;;;5056331;28;20031;-65
2021/11/07 00:21:17;;;;;;;49.70;6.55;;;10.50;99.90;;;;;;5054537;28;20017;-65
2021/11/07 00:29:09;;;;;;;58.35;8.38;;;10.60;99.90;;;;;;5050978;28;20036;-65
2021/11/07 00:34:37;;;;;;;60.13;7.43;;;10.70;99.90;;;;;;5074333;28;20119;-65
2021/11/07 00:39:44;;;;;;;39.08;7.18;;;10.70;99.90;;;;;;5074416;28;20456;-65
2021/11/07 00:42:30;;;;;;;50.53;7.22;;;10.70;99.90;;;;;;5073816;28;20020;-65
2021/11/07 00:44:59;;;;;;;60.42;7.63;;;10.80;99.90;;;;;;5073912;28;20093;-65
2021/11/07 00:47:40;;;;;;;64.57;7.05;;;10.80;99.90;;;;;;5073692;28;20020;-66
2021/11/07 00:50:11;;;;;;;35.63;6.55;;;10.80;99.90;;;;;;5073671;28;20108;-65
2021/11/07 00:53:09;;;;;;;45.10;5.20;;;10.70;99.90;;;;;;5073042;28;20077;-65
2021/11/07 00:55:47;;;;;;;44.45;5.72;;;10.70;99.90;;;;;;5073647;28;20024;-65
2021/11/07 00:58:18;;;;;;;46.05;6.15;;;10.60;99.90;;;;;;5073881;28;20100;-66
2021/11/07 01:01:19;;;;;;;41.95;4.97;;;10.50;99.90;;;;;;5073573;28;20039;-66
2021/11/07 01:03:35;;;;;;;46.88;7.25;;;10.40;99.90;;;;;;5071164;28;20044;-65
2021/11/07 01:06:02;;;;;;;37.88;4.55;;;10.30;99.90;;;;;;5072872;28;20020;-65
2021/11/07 01:08:27;;;;;;;40.03;4.90;;;10.30;99.90;;;;;;5073367;28;20032;-65
2021/11/07 01:10:54;;;;;;;54.22;5.38;;;10.30;99.90;;;;;;5073371;28;20040;-65
2021/11/07 01:13:19;;;;;;;79.90;7.85;;;10.20;99.90;;;;;;5073171;28;20044;-65
2021/11/07 01:15:45;;;;;;;63.60;8.98;;;10.30;99.90;;;;;;5072820;28;20059;-65
2021/11/07 01:18:11;;;;;;;52.50;6.50;;;10.30;99.90;;;;;;5073573;28;20044;-65
2021/11/07 01:20:37;;;;;;;48.90;7.38;;;10.30;99.90;;;;;;5073795;28;20062;-65
2021/11/07 01:25:35;;;;;;;67.45;9.32;;;10.30;99.90;;;;;;5103172;22;20578;-66
2021/11/07 01:28:03;;;;;;;60.50;7.40;;;10.30;99.90;;;;;;5093468;28;20387;-66
2021/11/07 01:30:31;;;;;;;56.53;7.50;;;10.30;99.90;;;;;;5093666;28;20352;-66
2021/11/07 01:33:04;;;;;;;45.92;6.78;;;10.20;99.90;;;;;;5093519;28;20059;-66
2021/11/07 01:35:40;;;;;;;61.83;8.30;;;10.20;99.90;;;;;;5092954;28;20024;-66
2021/11/07 01:40:37;;;;;;;60.97;6.47;;;10.20;99.90;;;;;;5093536;28;20047;-66
2021/11/07 01:43:03;;;;;;;71.72;8.07;;;10.20;99.90;;;;;;5093537;28;20031;-66
2021/11/07 01:45:37;;;;;;;95.43;10.73;;;10.20;99.90;;;;;;5093127;28;20073;-66
2021/11/07 01:48:09;;;;;;;77.97;10.15;;;10.20;99.90;;;;;;5091986;28;20119;-66
2021/11/07 01:50:40;;;;;;;66.72;7.22;;;10.20;99.90;;;;;;5092940;28;20055;-66
2021/11/07 01:53:22;;;;;;;80.90;10.13;;;10.10;99.90;;;;;;5093327;28;20028;-66
2021/11/07 01:55:48;;;;;;;71.20;8.57;;;10.10;99.90;;;;;;5093344;28;20028;-66
2021/11/07 01:58:14;;;;;;;50.58;7.85;;;10.10;99.90;;;;;;5093296;28;20016;-66
2021/11/07 02:00:42;;;;;;;110.20;10.20;;;10.10;99.90;;;;;;5093282;28;20020;-66
2021/11/07 02:03:08;;;;;;;90.35;10.43;;;10.10;99.90;;;;;;5092802;28;20157;-66
2021/11/07 02:05:34;;;;;;;90.38;11.15;;;10.00;99.90;;;;;;5092962;28;20073;-66
2021/11/07 02:07:59;;;;;;;71.75;8.25;;;10.10;99.90;;;;;;5093272;28;20028;-66
2021/11/07 02:10:25;;;;;;;59.80;8.70;;;10.00;99.90;;;;;;5092944;28;20028;-66
2021/11/07 02:12:51;;;;;;;69.78;8.07;;;10.00;99.90;;;;;;5092870;28;20391;-66
2021/11/07 02:15:20;;;;;;;87.65;9.60;;;9.90;99.90;;;;;;5092409;28;20021;-66
2021/11/07 02:17:46;;;;;;;88.82;9.82;;;9.90;99.90;;;;;;5093141;28;20024;-66
2021/11/07 02:20:22;;;;;;;78.00;9.38;;;9.80;99.90;;;;;;5093579;28;20028;-66
2021/11/07 02:22:48;;;;;;;77.88;9.05;;;9.70;99.90;;;;;;5092343;28;20390;-66
2021/11/07 02:25:14;;;;;;;59.30;8.80;;;9.70;99.90;;;;;;5105708;28;20118;-66
2021/11/07 02:27:40;;;;;;;71.68;10.77;;;9.70;99.90;;;;;;5113390;28;20032;-66
2021/11/07 02:30:10;;;;;;;59.95;8.60;;;9.60;99.90;;;;;;5113399;28;20023;-66
2021/11/07 02:32:37;;;;;;;62.88;8.55;;;9.60;99.90;;;;;;5112947;28;20023;-66
2021/11/07 02:35:03;;;;;;;68.53;8.20;;;9.50;99.90;;;;;;5113300;28;20386;-66
2021/11/07 02:37:29;;;;;;;74.28;9.25;;;9.50;99.90;;;;;;5112486;28;20030;-66
2021/11/07 02:39:55;;;;;;;89.07;8.77;;;9.50;99.90;;;;;;5115522;28;20020;-66
2021/11/07 02:42:21;;;;;;;60.55;8.73;;;9.60;99.90;;;;;;5117007;28;20050;-66
2021/11/07 02:44:47;;;;;;;56.65;8.65;;;9.60;99.90;;;;;;5116864;28;20024;-66
2021/11/07 02:47:16;;;;;;;69.57;8.73;;;9.50;99.90;;;;;;5116952;28;20034;-66
2021/11/07 02:49:42;;;;;;;84.63;9.60;;;9.40;99.90;;;;;;5116867;28;20076;-66
2021/11/07 02:52:11;;;;;;;62.67;8.43;;;9.40;99.90;;;;;;5116184;28;20031;-66
2021/11/07 02:54:37;;;;;;;59.40;7.10;;;9.40;99.90;;;;;;5116625;28;20028;-66
2021/11/07 02:57:06;;;;;;;57.28;8.57;;;9.30;99.90;;;;;;5116705;28;20028;-66
2021/11/07 02:59:35;;;;;;;66.07;9.07;;;9.40;99.90;;;;;;5116675;28;20020;-66
2021/11/07 03:02:03;;;;;;;53.50;6.70;;;9.40;99.90;;;;;;5116347;28;20383;-66
2021/11/07 03:04:29;;;;;;;66.18;8.30;;;9.30;99.90;;;;;;5116510;28;20027;-66
2021/11/07 03:06:54;;;;;;;77.82;8.10;;;9.30;99.90;;;;;;5115731;28;20020;-66
2021/11/07 03:09:23;;;;;;;60.80;8.75;;;9.30;99.90;;;;;;5116284;28;20027;-66
2021/11/07 03:11:50;;;;;;;61.28;7.70;;;9.30;99.90;;;;;;5098134;28;20489;-66
2021/11/07 03:14:20;;;;;;;65.95;8.70;;;9.30;99.90;;;;;;5116322;28;20026;-66
2021/11/07 03:16:46;;;;;;;74.00;10.55;;;9.30;99.90;;;;;;5116341;28;20027;-66
2021/11/07 03:19:13;;;;;;;66.47;8.48;;;9.40;99.90;;;;;;5116018;28;20027;-67
2021/11/07 03:21:40;;;;;;;56.47;8.10;;;9.50;99.90;;;;;;5115753;28;20023;-67
2021/11/07 03:24:06;;;;;;;53.08;8.43;;;9.40;99.90;;;;;;5115983;28;20031;-67
2021/11/07 03:26:35;;;;;;;49.42;6.45;;;9.40;99.90;;;;;;5116250;28;20023;-67
2021/11/07 03:29:02;;;;;;;49.47;6.85;;;9.30;99.90;;;;;;5111830;28;20030;-66
2021/11/07 03:32:31;;;;;;;65.95;7.82;;;9.30;99.90;;;;;;5115356;28;20019;-66
2021/11/07 03:34:26;;;;;;;69.28;7.10;;;9.30;99.90;;;;;;5081497;28;20070;-66
2021/11/07 03:36:55;;;;;;;53.97;6.57;;;9.40;99.90;;;;;;5095581;28;20020;-66
2021/11/07 03:39:21;;;;;;;83.13;9.27;;;9.30;99.90;;;;;;5107375;28;20035;-66
2021/11/07 03:41:49;;;;;;;67.90;8.95;;;9.40;99.90;;;;;;5115611;28;20088;-66
2021/11/07 03:44:17;;;;;;;56.08;8.75;;;9.40;99.90;;;;;;5115422;28;20471;-67
2021/11/07 03:46:44;;;;;;;55.75;7.32;;;9.50;99.90;;;;;;5114767;28;20085;-67
2021/11/07 03:49:10;;;;;;;60.08;7.88;;;9.50;99.90;;;;;;5115605;28;20032;-67
2021/11/07 03:51:37;;;;;;;57.20;7.43;;;9.50;99.90;;;;;;5115354;28;20135;-67
2021/11/07 03:54:05;;;;;;;73.43;8.30;;;9.50;99.90;;;;;;5115539;28;20031;-67
2021/11/07 03:56:31;;;;;;;49.65;7.07;;;9.50;99.90;;;;;;5098222;28;20081;-67
2021/11/07 03:58:57;;;;;;;75.50;8.95;;;9.50;99.90;;;;;;5105123;28;20099;-67
2021/11/07 04:01:23;;;;;;;68.20;9.27;;;9.60;99.90;;;;;;5115236;28;20028;-67
2021/11/07 04:03:48;;;;;;;69.05;9.73;;;9.60;99.90;;;;;;5111678;28;20016;-67
2021/11/07 04:06:14;;;;;;;83.25;10.30;;;9.70;99.90;;;;;;5094919;28;20046;-67
2021/11/07 04:08:41;;;;;;;55.47;7.07;;;9.70;99.90;;;;;;5094073;28;20506;-67
2021/11/07 04:11:07;;;;;;;46.45;6.65;;;9.70;99.90;;;;;;5094886;28;20020;-67
2021/11/07 04:13:36;;;;;;;64.13;7.30;;;9.70;99.90;;;;;;5098760;28;20426;-67
2021/11/07 04:16:02;;;;;;;64.30;6.93;;;9.60;99.90;;;;;;5115179;28;20032;-67
2021/11/07 04:18:28;;;;;;;54.83;6.90;;;9.60;99.90;;;;;;5115007;28;20466;-67
2021/11/07 04:20:53;;;;;;;62.38;7.28;;;9.50;99.90;;;;;;5114164;28;20062;-67
2021/11/07 04:23:19;;;;;;;55.15;7.93;;;9.50;99.90;;;;;;5115030;28;20043;-67
2021/11/07 04:25:44;;;;;;;63.47;8.68;;;9.50;99.90;;;;;;5114495;28;20399;-67
2021/11/07 04:28:10;;;;;;;40.33;5.93;;;9.50;99.90;;;;;;5114967;28;20036;-67
2021/11/07 04:30:35;;;;;;;41.67;6.10;;;9.50;99.90;;;;;;5114881;28;20023;-67
2021/11/07 04:33:01;;;;;;;44.63;5.53;;;9.60;99.90;;;;;;5113976;28;20035;-67
2021/11/07 04:35:28;;;;;;;40.88;5.70;;;9.60;99.90;;;;;;5114449;28;20063;-67
2021/11/07 04:37:54;;;;;;;46.47;5.72;;;9.60;99.90;;;;;;5113305;28;20034;-67
2021/11/07 04:40:20;;;;;;;47.88;4.82;;;9.60;99.90;;;;;;5112901;28;20020;-67
2021/11/07 04:42:46;;;;;;;36.67;5.50;;;9.60;99.90;;;;;;5114677;28;20035;-67
2021/11/07 04:45:12;;;;;;;30.77;4.97;;;9.60;99.90;;;;;;5099716;28;20044;-67
2021/11/07 04:47:38;;;;;;;19.77;3.80;;;9.50;99.90;;;;;;5093952;28;20085;-67
2021/11/07 04:50:06;;;;;;;31.70;4.68;;;9.40;99.90;;;;;;5103445;28;20024;-67
2021/11/07 04:52:32;;;;;;;25.33;3.75;;;9.40;99.90;;;;;;5114429;28;20031;-67
2021/11/07 04:54:57;;;;;;;35.90;5.13;;;9.30;99.90;;;;;;5113853;28;20386;-67
2021/11/07 04:57:23;;;;;;;30.98;4.38;;;9.20;99.90;;;;;;5112181;28;20034;-67
2021/11/07 04:59:49;;;;;;;38.05;6.60;;;9.20;99.90;;;;;;5111934;28;20505;-67
2021/11/07 05:02:14;;;;;;;26.45;4.00;;;9.20;99.90;;;;;;5113988;28;20031;-67
2021/11/07 05:04:41;;;;;;;45.08;6.45;;;9.20;99.90;;;;;;5096124;28;20028;-67
2021/11/07 05:07:07;;;;;;;39.50;4.25;;;9.20;99.90;;;;;;5093390;28;20067;-67
2021/11/07 05:09:32;;;;;;;26.17;4.18;;;9.10;99.90;;;;;;5102296;28;20032;-67
2021/11/07 05:11:58;;;;;;;26.08;5.35;;;9.10;99.90;;;;;;5114166;28;20024;-67
2021/11/07 05:14:23;;;;;;;44.65;6.28;;;9.00;99.90;;;;;;5113586;28;20031;-67
2021/11/07 05:16:49;;;;;;;38.03;4.63;;;9.00;99.90;;;;;;5113866;28;20032;-67
2021/11/07 05:19:14;;;;;;;39.33;5.20;;;8.90;99.90;;;;;;5113263;28;20042;-67
2021/11/07 05:21:40;;;;;;;36.92;4.75;;;9.00;99.90;;;;;;5113820;28;20047;-67
2021/11/07 05:24:06;;;;;;;29.75;4.18;;;9.00;99.90;;;;;;5113582;28;20031;-67
2021/11/07 05:26:33;;;;;;;28.40;3.38;;;9.10;99.90;;;;;;5114034;28;20031;-67
2021/11/07 05:28:59;;;;;;;22.88;3.35;;;9.00;99.90;;;;;;5113664;28;20068;-67
2021/11/07 05:31:25;;;;;;;24.42;4.70;;;8.90;99.90;;;;;;5113410;28;20034;-67
2021/11/07 05:33:51;;;;;;;26.30;5.13;;;9.00;99.90;;;;;;5113243;28;20545;-67
2021/11/07 05:36:17;;;;;;;26.58;4.47;;;9.00;99.90;;;;;;5113888;28;20023;-67
2021/11/07 05:38:43;;;;;;;30.42;4.88;;;8.90;99.90;;;;;;5113875;28;20120;-67
2021/11/07 05:41:08;;;;;;;32.88;3.80;;;8.70;99.90;;;;;;5112986;28;20074;-67
2021/11/07 05:43:34;;;;;;;27.92;3.90;;;8.60;99.90;;;;;;5112880;28;20436;-67
2021/11/07 05:46:00;;;;;;;22.20;3.47;;;8.50;99.90;;;;;;5113817;28;20023;-67
2021/11/07 05:48:25;;;;;;;27.80;3.97;;;8.50;99.90;;;;;;5113431;28;20023;-67
2021/11/07 05:50:51;;;;;;;28.23;5.78;;;8.40;99.90;;;;;;5112987;28;20032;-67
2021/11/07 05:53:17;;;;;;;27.95;3.25;;;8.30;99.90;;;;;;5113036;28;20023;-67
2021/11/07 05:55:42;;;;;;;25.25;4.13;;;8.30;99.90;;;;;;5113394;28;20466;-67
2021/11/07 05:58:08;;;;;;;38.10;3.70;;;8.30;99.90;;;;;;5113668;28;20040;-67
2021/11/07 06:00:34;;;;;;;35.47;3.83;;;8.30;99.90;;;;;;5112510;28;20020;-67
2021/11/07 06:03:06;;;;;;;26.48;3.53;;;8.30;99.90;;;;;;5093077;28;20107;-67
2021/11/07 06:05:33;;;;;;;26.75;4.43;;;8.30;99.90;;;;;;5095134;28;20028;-67
2021/11/07 06:07:59;;;;;;;37.28;5.10;;;8.30;99.90;;;;;;5093000;28;20028;-67
2021/11/07 06:10:24;;;;;;;34.92;4.35;;;8.30;99.90;;;;;;5093245;28;20024;-67
2021/11/07 06:12:50;;;;;;;31.20;3.90;;;8.30;99.90;;;;;;5106588;28;20038;-67
2021/11/07 06:15:15;;;;;;;39.80;4.70;;;8.30;99.90;;;;;;5097771;28;20031;-67
2021/11/07 06:17:41;;;;;;;39.00;5.30;;;8.30;99.90;;;;;;5096423;28;20016;-67
2021/11/07 06:20:07;;;;;;;41.20;4.70;;;8.30;99.90;;;;;;5096753;28;20386;-67
2021/11/07 06:22:33;;;;;;;35.03;4.57;;;8.30;99.90;;;;;;5096692;28;20081;-67
2021/11/07 06:24:59;;;;;;;24.52;3.38;;;8.30;99.90;;;;;;5107147;28;20440;-67
2021/11/07 06:27:28;;;;;;;47.45;5.70;;;8.30;99.90;;;;;;5116983;28;20432;-67
2021/11/07 06:29:54;;;;;;;28.45;4.18;;;8.40;99.90;;;;;;5115112;28;20402;-67
2021/11/07 06:32:19;;;;;;;27.92;4.90;;;8.40;99.90;;;;;;5116381;28;20028;-67
2021/11/07 06:34:45;;;;;;;26.73;3.42;;;8.30;99.90;;;;;;5114371;28;20088;-67
2021/11/07 06:37:11;;;;;;;33.13;4.55;;;8.30;99.90;;;;;;5116889;28;20015;-67
2021/11/07 06:39:37;;;;;;;32.20;3.47;;;8.20;99.90;;;;;;5105750;28;20024;-67
2021/11/07 06:42:04;;;;;;;24.35;3.38;;;8.10;99.90;;;;;;5096675;28;20062;-67
2021/11/07 06:44:30;;;;;;;18.05;2.55;;;8.00;99.90;;;;;;5097902;28;20058;-67
2021/11/07 06:46:57;;;;;;;19.98;3.63;;;8.00;99.90;;;;;;5096573;28;20028;-67
2021/11/07 06:49:23;;;;;;;31.40;5.28;;;8.00;99.90;;;;;;5100515;28;20080;-67
2021/11/07 06:51:50;;;;;;;23.92;3.50;;;7.90;99.90;;;;;;5116504;28;20073;-67
2021/11/07 06:54:15;;;;;;;42.67;4.22;;;7.90;99.90;;;;;;5116494;28;20022;-67
2021/11/07 06:56:41;;;;;;;27.80;4.35;;;7.80;99.90;;;;;;5100629;28;20020;-67
2021/11/07 06:59:07;;;;;;;30.10;3.88;;;7.70;99.90;;;;;;5096084;28;20032;-67
2021/11/07 07:01:35;;;;;;;20.55;3.95;;;7.80;99.90;;;;;;5106346;28;20059;-67
2021/11/07 07:04:00;;;;;;;20.98;3.00;;;7.80;99.90;;;;;;5116348;28;20027;-67
2021/11/07 07:06:26;;;;;;;28.48;3.60;;;7.80;99.90;;;;;;5111295;28;20020;-67
2021/11/07 07:09:03;;;;;;;21.17;2.63;;;7.80;99.90;;;;;;5099525;28;20023;-66
2021/11/07 07:14:03;;;;;;;12.02;2.05;;;7.60;99.90;;;;;;5116320;28;20115;-66
2021/11/07 07:19:06;;;;;;;12.70;3.00;;;7.50;99.90;;;;;;5116356;28;20020;-66
2021/11/07 07:21:57;;;;;;;13.02;2.25;;;7.40;99.90;;;;;;5115909;28;20505;-66
2021/11/07 07:25:28;;;;;;;24.30;2.97;;;7.40;99.90;;;;;;5134610;22;20097;-67
2021/11/07 07:29:55;;;;;;;16.92;2.00;;;7.40;99.90;;;;;;5095739;28;20463;-67
2021/11/07 07:34:58;;;;;;;25.13;2.70;;;7.30;99.90;;;;;;5095208;28;20364;-67
2021/11/07 07:37:24;;;;;;;18.90;2.63;;;7.30;99.90;;;;;;5086742;28;20020;-67
2021/11/07 07:39:50;;;;;;;19.10;2.97;;;7.30;99.90;;;;;;5094759;28;20472;-67
2021/11/07 07:42:16;;;;;;;14.93;2.13;;;7.40;99.90;;;;;;5095572;28;20024;-68
2021/11/07 07:44:42;;;;;;;16.02;2.53;;;7.40;99.90;;;;;;5095047;28;20031;-67
2021/11/07 07:47:07;;;;;;;23.38;2.47;;;7.40;99.90;;;;;;5095167;28;20060;-68
2021/11/07 07:49:33;;;;;;;18.95;3.80;;;7.60;99.90;;;;;;5094827;28;20031;-67
2021/11/07 07:51:59;;;;;;;18.85;3.47;;;7.70;99.90;;;;;;5094906;28;20475;-68
2021/11/07 07:54:25;;;;;;;20.85;3.75;;;7.90;99.90;;;;;;5094686;28;20024;-68
2021/11/07 07:56:52;;;;;;;25.10;3.83;;;8.00;99.90;;;;;;5094918;28;20023;-68
2021/11/07 07:59:18;;;;;;;32.28;3.65;;;8.10;99.90;;;;;;5094516;28;20021;-68
2021/11/07 08:01:44;;;;;;;26.55;3.50;;;8.20;99.90;;;;;;5094885;28;20441;-67
2021/11/07 08:04:10;;;;;;;37.67;12.13;;;8.20;99.90;;;;;;5094119;28;20020;-68
2021/11/07 08:06:36;;;;;;;65.03;31.17;;;8.30;99.90;;;;;;5095173;28;20020;-67
2021/11/07 08:09:02;;;;;;;136.43;66.55;;;8.40;99.90;;;;;;5094441;28;20020;-67
2021/11/07 08:11:28;;;;;;;28.65;4.13;;;8.40;99.90;;;;;;5094137;28;20096;-68
2021/11/07 08:13:53;;;;;;;15.25;2.83;;;8.30;99.90;;;;;;5094659;28;20103;-68
2021/11/07 08:16:21;;;;;;;10.15;2.08;;;8.30;99.90;;;;;;5094871;28;20053;-68
2021/11/07 08:18:47;;;;;;;21.17;2.13;;;8.20;99.90;;;;;;5094710;28;20037;-68
2021/11/07 08:21:13;;;;;;;18.80;3.45;;;8.20;99.90;;;;;;5094502;28;20016;-68
2021/11/07 08:23:39;;;;;;;25.60;3.60;;;8.30;99.90;;;;;;5093624;28;20020;-68
2021/11/07 08:26:05;;;;;;;13.10;2.63;;;8.40;99.90;;;;;;5094258;28;20406;-68
2021/11/07 08:28:32;;;;;;;18.60;3.22;;;8.50;99.90;;;;;;5094287;28;20031;-68
2021/11/07 08:31:07;;;;;;;31.02;4.68;;;8.40;99.90;;;;;;5094542;28;20035;-68
2021/11/07 08:33:34;;;;;;;17.70;3.00;;;8.20;99.90;;;;;;5093627;28;20044;-67
2021/11/07 08:36:06;;;;;;;15.15;2.95;;;8.10;99.90;;;;;;5093601;28;20035;-68
2021/11/07 08:38:37;;;;;;;21.00;2.60;;;7.90;99.90;;;;;;5093844;28;20121;-68
2021/11/07 08:41:06;;;;;;;19.23;2.78;;;7.90;99.90;;;;;;5093993;28;20561;-68
2021/11/07 09:01:00;;;;;;;43.58;11.30;;;7.70;99.90;;;;;;5086079;28;20042;-68
2021/11/07 09:02:58;;;;;;;24.88;4.28;;;7.80;99.90;;;;;;5080308;28;20509;-68
2021/11/07 09:05:35;;;;;;;28.45;4.25;;;7.90;99.90;;;;;;5093284;28;20078;-67
2021/11/07 09:08:14;;;;;;;27.85;3.78;;;7.90;99.90;;;;;;5092223;28;20032;-67
2021/11/07 09:10:41;;;;;;;38.97;6.15;;;7.90;99.90;;;;;;5093725;28;20547;-67
2021/11/07 09:13:09;;;;;;;29.15;6.13;;;7.90;99.90;;;;;;5093446;28;20032;-68
2021/11/07 09:15:38;;;;;;;28.90;4.25;;;8.00;99.90;;;;;;5091652;28;20499;-67
2021/11/07 09:18:04;;;;;;;30.83;5.53;;;8.10;99.90;;;;;;5093831;28;20085;-68
2021/11/07 09:23:34;;;;;;;39.65;6.93;;;7.90;99.90;;;;;;5093552;28;20020;-68
2021/11/07 09:28:47;;;;;;;17.23;2.97;;;7.70;99.90;;;;;;5087891;28;20032;-67
2021/11/07 09:38:50;;;;;;;24.85;3.80;;;7.60;99.90;;;;;;5093217;28;20065;-68
2021/11/07 09:44:04;;;;;;;18.75;3.45;;;7.80;99.90;;;;;;5092578;28;20530;-68
2021/11/07 09:46:37;;;;;;;22.15;3.20;;;8.00;99.90;;;;;;5093558;28;20455;-68
2021/11/07 09:51:41;;;;;;;35.58;3.33;;;8.10;99.90;;;;;;5097901;28;20033;-67
2021/11/07 09:54:10;;;;;;;38.20;4.70;;;7.90;99.90;;;;;;5097257;28;20078;-68
2021/11/07 09:56:35;;;;;;;36.03;3.40;;;7.90;99.90;;;;;;5096084;28;20542;-67
2021/11/07 09:59:01;;;;;;;33.65;3.72;;;7.90;99.90;;;;;;5097174;28;20107;-67
2021/11/07 10:01:31;;;;;;;26.75;3.80;;;7.80;99.90;;;;;;5096680;28;20031;-67
2021/11/07 10:03:59;;;;;;;28.75;4.57;;;7.80;99.90;;;;;;5097400;28;20024;-68
2021/11/07 10:06:41;;;;;;;47.47;5.68;;;7.80;99.90;;;;;;5096956;28;20017;-68
2021/11/07 10:09:07;;;;;;;25.60;4.22;;;7.80;99.90;;;;;;5097196;28;20024;-67
2021/11/07 10:11:42;;;;;;;27.88;5.38;;;7.70;99.90;;;;;;5096950;28;20571;-67
2021/11/07 10:14:18;;;;;;;14.65;2.65;;;7.70;99.90;;;;;;5094838;28;20028;-66
2021/11/07 10:16:50;;;;;;;23.73;3.28;;;7.60;99.90;;;;;;5097145;28;20028;-68
2021/11/07 10:19:30;;;;;;;24.35;3.67;;;7.50;99.90;;;;;;5097117;28;20024;-67
2021/11/07 10:21:57;;;;;;;29.48;3.88;;;7.40;99.90;;;;;;5096854;28;20020;-68
2021/11/07 10:24:30;;;;;;;27.55;5.03;;;7.40;99.90;;;;;;5096774;28;20377;-67
2021/11/07 10:27:00;;;;;;;45.72;5.10;;;7.30;99.90;;;;;;5080440;28;20025;-67
2021/11/07 10:29:45;;;;;;;27.33;3.97;;;7.30;99.90;;;;;;5077245;28;20012;-67
2021/11/07 10:32:21;;;;;;;28.40;4.13;;;7.40;99.90;;;;;;5078245;28;20024;-67
2021/11/07 10:35:23;;;;;;;28.65;3.38;;;7.60;99.90;;;;;;5076538;28;20024;-67
2021/11/07 10:38:04;;;;;;;28.23;4.32;;;7.70;99.90;;;;;;5091344;28;20059;-67
2021/11/07 10:43:35;;;;;;;44.45;4.45;;;8.20;99.90;;;;;;5076145;28;20093;-67
2021/11/07 10:52:07;;;;;;;39.22;4.22;;;8.60;99.90;;;;;;5075984;28;20070;-67
2021/11/07 10:54:40;;;;;;;36.58;4.13;;;8.60;99.90;;;;;;5077918;28;20025;-67
2021/11/07 10:57:18;;;;;;;35.63;3.85;;;8.70;99.90;;;;;;5096041;28;20031;-67
2021/11/07 11:00:05;;;;;;;34.10;4.03;;;8.70;99.90;;;;;;5095793;28;20028;-68
2021/11/07 11:02:42;;;;;;;24.30;2.72;;;8.60;99.90;;;;;;5096048;28;20083;-67
2021/11/07 11:05:20;;;;;;;21.27;2.53;;;8.60;99.90;;;;;;5096123;28;20051;-68
2021/11/07 11:08:10;;;;;;;15.25;2.08;;;8.70;99.90;;;;;;5095221;28;20031;-67
2021/11/07 11:13:18;;;;;;;14.43;2.38;;;8.90;99.90;;;;;;5096032;28;20024;-67
2021/11/07 11:16:08;;;;;;;12.10;1.98;;;9.00;99.90;;;;;;5095771;28;20471;-68
2021/11/07 11:21:32;;;;;;;14.50;2.00;;;9.00;99.90;;;;;;5060552;28;20044;-68
2021/11/07 11:27:03;;;;;;;13.95;2.65;;;8.90;99.90;;;;;;5036238;28;20041;-67
2021/11/07 11:34:53;;;;;;;19.35;2.00;;;8.50;99.90;;;;;;5075435;28;20021;-67
2021/11/07 11:37:37;;;;;;;11.20;1.50;;;8.30;99.90;;;;;;5090801;28;20023;-67
2021/11/07 11:40:15;;;;;;;22.00;2.25;;;8.20;99.90;;;;;;5077591;28;20021;-67
2021/11/07 11:42:48;;;;;;;15.20;1.85;;;8.10;99.90;;;;;;5075106;28;20044;-67
2021/11/07 11:45:20;;;;;;;15.67;1.90;;;8.00;99.90;;;;;;5074816;28;20384;-67
2021/11/07 11:57:44;;;;;;;7.95;1.88;;;8.10;99.90;;;;;;5073418;28;20086;-67
2021/11/07 12:00:53;;;;;;;11.80;1.77;;;8.10;99.90;;;;;;5094952;28;20017;-67
2021/11/07 12:06:20;;;;;;;8.10;1.70;;;8.20;99.90;;;;;;5094945;28;20036;-67
2021/11/07 12:09:01;;;;;;;14.25;1.58;;;8.30;99.90;;;;;;5094924;28;20028;-68
2021/11/07 12:11:40;;;;;;;11.35;2.08;;;8.30;99.90;;;;;;5093849;28;20024;-67
2021/11/07 12:14:14;;;;;;;9.02;1.50;;;8.40;99.90;;;;;;5094354;28;20392;-67
2021/11/07 12:16:51;;;;;;;17.08;1.92;;;8.30;99.90;;;;;;5094752;28;20017;-67
2021/11/07 12:19:19;;;;;;;11.20;1.90;;;8.10;99.90;;;;;;5094435;28;20020;-67
2021/11/07 12:21:47;;;;;;;14.43;1.88;;;8.00;99.90;;;;;;5094604;28;20517;-67
2021/11/07 12:24:14;;;;;;;20.92;2.22;;;7.90;99.90;;;;;;5093617;28;20024;-66
2021/11/07 12:26:39;;;;;;;16.80;2.28;;;7.90;99.90;;;;;;5094735;28;20375;-67
2021/11/07 12:29:05;;;;;;;16.45;2.30;;;7.90;99.90;;;;;;5092925;28;20024;-67
2021/11/07 12:31:32;;;;;;;17.17;2.40;;;7.80;99.90;;;;;;5094632;28;20065;-67
2021/11/07 12:34:11;;;;;;;8.10;1.85;;;7.80;99.90;;;;;;5089261;28;20378;-67
2021/11/07 12:42:18;;;;;;;26.67;2.60;;;7.80;99.90;;;;;;5094471;28;20031;-67
2021/11/07 12:44:49;;;;;;;16.83;3.00;;;7.80;99.90;;;;;;5093011;28;20403;-67
2021/11/07 12:47:16;;;;;;;22.65;2.70;;;7.80;99.90;;;;;;5093556;28;20031;-67
2021/11/07 12:49:56;;;;;;;24.42;3.10;;;7.80;99.90;;;;;;5077249;28;20495;-67
2021/11/07 12:52:22;;;;;;;24.48;3.63;;;7.90;99.90;;;;;;5073705;28;20399;-67
2021/11/07 12:54:47;;;;;;;34.58;2.67;;;8.00;99.90;;;;;;5087742;28;20560;-69
2021/11/07 12:57:22;;;;;;;23.60;3.20;;;8.10;99.90;;;;;;5094451;28;20145;-67
2021/11/07 12:59:51;;;;;;;30.88;3.72;;;8.20;99.90;;;;;;5093197;28;20105;-67
2021/11/07 13:02:46;;;;;;;34.88;3.53;;;8.10;99.90;;;;;;5094062;28;20032;-67
2021/11/07 13:05:18;;;;;;;31.23;3.67;;;8.10;99.90;;;;;;5088957;28;20117;-67
2021/11/07 13:08:12;;;;;;;38.13;3.28;;;8.20;99.90;;;;;;5077508;28;20166;-67
2021/11/07 13:16:39;;;;;;;31.50;3.50;;;8.20;99.90;;;;;;5080814;28;20020;-67
2021/11/07 13:27:18;;;;;;;44.90;8.00;;;8.40;99.90;;;;;;5079128;28;20398;-67
2021/11/07 13:35:16;;;;;;;56.10;5.57;;;8.60;99.90;;;;;;5083399;28;20044;-66
2021/11/07 13:38:01;;;;;;;40.45;5.90;;;8.70;99.90;;;;;;5076730;28;20111;-68
2021/11/07 13:40:32;;;;;;;29.50;4.72;;;8.70;99.90;;;;;;5078772;28;20557;-68
2021/11/07 13:43:10;;;;;;;39.70;4.00;;;8.80;99.90;;;;;;5080850;28;20399;-68
2021/11/07 13:45:40;;;;;;;31.90;3.42;;;8.80;99.90;;;;;;5083538;28;20174;-69
2021/11/07 13:48:25;;;;;;;33.97;3.63;;;8.80;99.90;;;;;;5081226;28;20024;-68
2021/11/07 13:50:53;;;;;;;19.45;3.40;;;8.70;99.90;;;;;;5074482;28;20512;-70
2021/11/07 13:53:45;;;;;;;17.08;4.15;;;8.70;99.90;;;;;;5088395;28;20036;-69
2021/11/07 13:56:13;;;;;;;20.65;3.35;;;8.60;99.90;;;;;;5081627;28;20031;-69
2021/11/07 13:58:41;;;;;;;39.38;4.63;;;8.70;99.90;;;;;;5075780;28;20038;-69
2021/11/07 14:01:10;;;;;;;37.15;5.47;;;8.70;99.90;;;;;;5088150;28;20031;-69
2021/11/07 14:03:36;;;;;;;31.60;5.05;;;8.70;99.90;;;;;;5084274;28;20056;-68
2021/11/07 14:08:49;;;;;;;37.75;5.50;;;8.80;99.90;;;;;;5092089;28;20036;-66
2021/11/07 14:11:19;;;;;;;20.90;2.65;;;8.70;99.90;;;;;;5112031;28;20015;-67
2021/11/07 14:13:48;;;;;;;22.67;3.65;;;8.30;99.90;;;;;;5112423;28;20103;-68
2021/11/07 14:16:16;;;;;;;25.88;4.47;;;8.20;99.90;;;;;;5112703;28;20032;-67
2021/11/07 14:18:44;;;;;;;34.08;4.68;;;8.30;99.90;;;;;;5112863;28;20095;-68
2021/11/07 14:21:12;;;;;;;43.30;5.00;;;8.30;99.90;;;;;;5113011;28;20379;-67
2021/11/07 14:23:54;;;;;;;29.85;4.22;;;8.40;99.90;;;;;;5112285;28;20062;-67
2021/11/07 14:26:26;;;;;;;23.08;4.05;;;8.50;99.90;;;;;;5112772;28;20037;-68
2021/11/07 14:29:09;;;;;;;34.97;5.82;;;8.50;99.90;;;;;;5095554;28;20024;-67
2021/11/07 14:31:49;;;;;;;43.80;6.63;;;8.60;99.90;;;;;;5104339;28;20081;-67
2021/11/07 14:34:30;;;;;;;54.78;6.18;;;8.60;99.90;;;;;;5086024;28;20085;-67
2021/11/07 14:39:54;;;;;;;51.42;5.78;;;8.60;99.90;;;;;;5092494;28;20035;-66
2021/11/07 14:45:11;;;;;;;39.88;5.68;;;8.70;99.90;;;;;;5078931;28;20471;-67
2021/11/07 14:47:47;;;;;;;58.05;6.15;;;8.70;99.90;;;;;;5084266;28;20039;-67
2021/11/07 14:53:01;;;;;;;37.83;7.50;;;8.80;99.90;;;;;;5084791;28;20032;-67
2021/11/07 14:55:35;;;;;;;46.95;5.47;;;8.70;99.90;;;;;;5079463;28;20170;-67
2021/11/07 14:58:27;;;;;;;53.83;6.07;;;8.80;99.90;;;;;;5081711;28;20028;-67
2021/11/07 15:01:11;;;;;;;55.38;7.18;;;8.80;99.90;;;;;;5083620;28;20019;-68
2021/11/07 15:03:48;;;;;;;44.63;6.78;;;8.80;99.90;;;;;;5083576;28;20440;-67
2021/11/07 15:08:55;;;;;;;46.65;8.18;;;8.90;99.90;;;;;;5085999;28;20028;-68
2021/11/07 15:13:58;;;;;;;54.60;7.70;;;8.90;99.90;;;;;;5084848;28;20029;-68
2021/11/07 15:16:41;;;;;;;49.45;8.23;;;8.90;99.90;;;;;;5087247;28;20487;-68
2021/11/07 15:19:12;;;;;;;68.75;7.47;;;8.90;99.90;;;;;;5088814;28;20105;-68
2021/11/07 15:24:43;;;;;;;81.90;8.48;;;8.90;99.90;;;;;;5076003;28;20170;-67